Time;durP1;ratioP1;P1;durP2;ratioP2;P2;SDS_P1;SDS_P2;PMS_P1;PMS_P2;Temp;Humidity;BMP_temperature;BMP_pressure;BME280_temperature;BME280_humidity;BME280_pressure;Samples;Min_cycle;Max_cycle;Signal;HPM_P1;HPM_P2
2023/07/03 00:02:07;;;;;;;7.97;4.20;;;15.80;1.00;;;;;;5054928;28;20185;-73
2023/07/03 00:04:37;;;;;;;6.97;3.83;;;15.80;1.00;;;;;;5047304;28;20268;-73
2023/07/03 00:07:04;;;;;;;7.63;4.45;;;15.70;1.00;;;;;;5056942;28;20482;-73
2023/07/03 00:09:29;;;;;;;6.93;4.45;;;15.70;1.00;;;;;;5047016;28;20237;-73
2023/07/03 00:11:55;;;;;;;6.60;4.47;;;15.80;1.00;;;;;;5054711;28;20178;-73
2023/07/03 00:14:21;;;;;;;7.65;4.43;;;15.80;1.00;;;;;;5052575;28;20193;-73
2023/07/03 00:16:46;;;;;;;8.32;4.75;;;15.90;1.00;;;;;;5058189;28;20202;-74
2023/07/03 00:19:13;;;;;;;5.50;4.28;;;15.90;1.00;;;;;;5046596;28;20189;-75
2023/07/03 00:21:43;;;;;;;6.30;4.07;;;15.80;1.00;;;;;;5055326;28;20713;-74
2023/07/03 00:24:12;;;;;;;8.68;4.55;;;15.80;1.00;;;;;;5055511;28;20197;-74
2023/07/03 00:26:41;;;;;;;6.65;4.25;;;15.80;1.00;;;;;;5051738;28;20198;-73
2023/07/03 00:29:07;;;;;;;6.20;4.03;;;15.90;1.00;;;;;;5054261;28;20603;-74
2023/07/03 00:31:32;;;;;;;6.85;4.55;;;15.80;1.00;;;;;;5058923;28;20227;-75
2023/07/03 00:33:58;;;;;;;5.78;4.13;;;15.80;1.00;;;;;;5050876;28;20205;-74
2023/07/03 00:36:24;;;;;;;6.38;4.38;;;15.80;1.00;;;;;;5045726;28;20528;-73
2023/07/03 00:38:50;;;;;;;6.13;4.75;;;15.80;1.00;;;;;;5051390;28;20169;-73
2023/07/03 00:41:16;;;;;;;9.05;5.03;;;15.80;1.00;;;;;;5050798;28;20445;-74
2023/07/03 00:43:42;;;;;;;6.18;4.38;;;15.70;1.00;;;;;;5048941;28;20262;-74
2023/07/03 00:46:11;;;;;;;7.82;4.55;;;15.70;1.00;;;;;;5050383;28;20220;-73
2023/07/03 00:48:39;;;;;;;7.10;4.35;;;15.80;1.00;;;;;;5054993;28;20688;-75
2023/07/03 00:51:06;;;;;;;6.40;4.47;;;15.80;1.00;;;;;;5053201;28;20256;-74
2023/07/03 00:53:31;;;;;;;8.27;4.35;;;15.80;1.00;;;;;;5054621;28;20304;-73
2023/07/03 00:55:57;;;;;;;9.07;5.40;;;15.80;1.00;;;;;;5045640;28;20284;-73
2023/07/03 00:58:23;;;;;;;6.75;4.47;;;15.80;1.00;;;;;;5054171;28;20730;-73
2023/07/03 01:01:23;;;;;;;7.38;4.32;;;15.80;1.00;;;;;;5055685;28;20181;-73
2023/07/03 01:04:11;;;;;;;7.60;4.45;;;15.70;1.00;;;;;;4995070;28;20197;-73
2023/07/03 01:06:50;;;;;;;8.55;4.68;;;15.60;1.00;;;;;;5046134;28;20202;-75
2023/07/03 01:09:19;;;;;;;7.85;4.47;;;15.60;1.00;;;;;;5056931;28;20239;-74
2023/07/03 01:11:47;;;;;;;6.13;4.22;;;15.70;1.00;;;;;;5047741;28;20185;-75
2023/07/03 01:14:17;;;;;;;7.47;4.60;;;15.50;1.00;;;;;;5048238;28;20315;-74
2023/07/03 01:16:44;;;;;;;6.50;4.60;;;15.40;1.00;;;;;;5057612;28;20623;-74
2023/07/03 01:19:14;;;;;;;5.03;3.92;;;15.30;1.00;;;;;;5057594;28;20188;-74
2023/07/03 01:21:50;;;;;;;6.03;4.18;;;15.30;1.00;;;;;;5051859;28;20664;-74
2023/07/03 01:24:57;;;;;;;6.45;4.40;;;15.30;1.00;;;;;;5032301;28;20232;-72
2023/07/03 01:27:30;;;;;;;6.70;4.57;;;15.30;1.00;;;;;;5033406;28;20393;-74
2023/07/03 01:29:57;;;;;;;8.10;4.85;;;15.40;1.00;;;;;;5029850;28;20182;-73
2023/07/03 01:32:26;;;;;;;5.88;4.20;;;15.10;1.00;;;;;;5055489;28;20181;-73
2023/07/03 01:34:53;;;;;;;6.18;4.97;;;14.90;68.30;;;;;;5050176;28;20480;-73
2023/07/03 01:37:23;;;;;;;6.70;4.93;;;14.70;99.90;;;;;;5052011;28;20189;-73
2023/07/03 01:39:51;;;;;;;8.07;5.50;;;14.60;99.90;;;;;;5051304;28;20182;-74
2023/07/03 01:42:18;;;;;;;8.32;4.43;;;14.50;99.90;;;;;;5050536;28;20181;-73
2023/07/03 01:44:44;;;;;;;7.57;5.18;;;14.40;1.00;;;;;;5049720;28;20323;-73
2023/07/03 01:47:12;;;;;;;9.23;5.18;;;14.30;1.00;;;;;;5052102;28;20689;-74
2023/07/03 01:49:38;;;;;;;6.38;4.90;;;14.20;1.00;;;;;;5048181;28;20209;-73
2023/07/03 01:52:12;;;;;;;7.22;4.53;;;14.20;1.00;;;;;;5046013;28;20178;-74
2023/07/03 01:54:45;;;;;;;7.55;4.78;;;14.30;1.00;;;;;;5046833;28;20220;-74
2023/07/03 01:57:19;;;;;;;7.70;4.78;;;14.40;1.00;;;;;;5049458;28;20717;-73
2023/07/03 01:59:47;;;;;;;7.68;4.72;;;14.40;1.00;;;;;;5046796;28;20198;-74
2023/07/03 02:02:19;;;;;;;8.35;5.20;;;14.50;1.00;;;;;;5044089;28;20182;-74
2023/07/03 02:05:05;;;;;;;8.25;4.85;;;14.50;99.90;;;;;;5052425;28;20189;-74
2023/07/03 02:07:31;;;;;;;7.03;4.70;;;14.70;99.90;;;;;;5046510;28;20190;-74
2023/07/03 02:09:58;;;;;;;8.68;4.65;;;14.80;99.90;;;;;;5048462;28;20194;-74
2023/07/03 02:12:24;;;;;;;7.13;4.60;;;15.10;9.30;;;;;;5046401;28;20273;-74
2023/07/03 02:14:50;;;;;;;7.60;4.65;;;15.20;1.00;;;;;;5048807;28;20293;-73
2023/07/03 02:17:16;;;;;;;8.85;4.85;;;15.40;1.00;;;;;;5052266;28;20209;-73
2023/07/03 02:19:42;;;;;;;8.25;4.90;;;15.50;1.00;;;;;;5045015;28;20189;-73
2023/07/03 02:22:07;;;;;;;6.80;4.35;;;15.50;1.00;;;;;;5045781;28;20173;-74
2023/07/03 02:24:33;;;;;;;6.90;4.68;;;15.50;1.00;;;;;;5051968;28;20186;-73
2023/07/03 02:26:59;;;;;;;9.48;5.05;;;15.60;1.00;;;;;;5044089;28;20210;-74
2023/07/03 02:29:25;;;;;;;8.30;5.00;;;15.80;1.00;;;;;;5052771;28;20256;-73
2023/07/03 02:31:50;;;;;;;6.90;4.35;;;15.90;1.00;;;;;;5052103;28;20637;-74
2023/07/03 02:34:16;;;;;;;7.15;4.88;;;15.90;1.00;;;;;;5038134;28;20243;-73
2023/07/03 02:36:42;;;;;;;9.45;4.60;;;15.90;1.00;;;;;;5050920;28;20209;-73
2023/07/03 02:39:09;;;;;;;9.50;5.18;;;15.80;1.00;;;;;;5046501;28;20205;-74
2023/07/03 02:41:34;;;;;;;7.72;4.40;;;15.80;1.00;;;;;;5043893;28;20181;-73
2023/07/03 02:44:00;;;;;;;8.30;5.03;;;15.80;1.00;;;;;;5045929;28;20170;-73
2023/07/03 02:46:26;;;;;;;9.27;4.68;;;16.00;1.00;;;;;;5045570;28;20232;-74
2023/07/03 02:48:51;;;;;;;8.23;4.72;;;15.90;1.00;;;;;;5043949;28;20208;-72
2023/07/03 02:51:17;;;;;;;8.25;4.75;;;15.90;1.00;;;;;;5043748;28;21242;-73
2023/07/03 02:53:43;;;;;;;9.77;4.70;;;15.90;1.00;;;;;;5051244;28;20256;-73
2023/07/03 02:56:09;;;;;;;9.10;5.15;;;15.80;1.00;;;;;;5049907;28;20221;-75
2023/07/03 02:58:35;;;;;;;7.80;4.85;;;15.70;1.00;;;;;;5051056;28;20472;-73
2023/07/03 03:01:01;;;;;;;9.20;5.38;;;15.80;1.00;;;;;;5059434;28;20710;-73
2023/07/03 03:03:27;;;;;;;8.45;4.93;;;15.80;1.00;;;;;;5054976;28;20447;-73
2023/07/03 03:05:53;;;;;;;10.07;5.07;;;16.00;1.00;;;;;;5050740;28;20291;-72
2023/07/03 03:08:18;;;;;;;8.32;4.93;;;15.80;1.00;;;;;;5048982;28;20186;-73
2023/07/03 03:10:44;;;;;;;7.47;4.50;;;15.80;1.00;;;;;;5054838;28;20193;-72
2023/07/03 03:13:09;;;;;;;11.00;5.13;;;15.80;1.00;;;;;;5049020;28;20553;-72
2023/07/03 03:15:35;;;;;;;7.90;4.60;;;15.80;1.00;;;;;;5052115;28;20218;-76
2023/07/03 03:18:04;;;;;;;9.75;4.88;;;15.90;1.00;;;;;;5033659;28;20300;-73
2023/07/03 03:20:30;;;;;;;8.85;5.15;;;15.90;1.00;;;;;;5048469;28;20542;-75
2023/07/03 03:22:56;;;;;;;11.32;5.40;;;15.80;1.00;;;;;;5046860;28;20265;-74
2023/07/03 03:25:22;;;;;;;8.90;4.93;;;15.80;1.00;;;;;;5049707;28;20233;-73
2023/07/03 03:27:47;;;;;;;8.68;4.75;;;15.80;1.00;;;;;;5053130;28;20940;-73
2023/07/03 03:30:13;;;;;;;9.57;5.50;;;15.90;1.00;;;;;;5055833;28;20603;-72
2023/07/03 03:32:39;;;;;;;7.90;4.95;;;15.80;1.00;;;;;;5055625;28;20185;-74
2023/07/03 03:35:05;;;;;;;7.82;4.70;;;15.80;1.00;;;;;;5044786;28;20205;-73
2023/07/03 03:37:31;;;;;;;7.80;4.70;;;15.80;1.00;;;;;;5057533;28;20268;-72
2023/07/03 03:39:56;;;;;;;6.57;4.60;;;15.70;1.00;;;;;;5053594;28;20265;-73
2023/07/03 03:42:22;;;;;;;7.63;4.95;;;15.60;1.00;;;;;;5058109;28;20259;-73
2023/07/03 03:44:48;;;;;;;9.52;4.80;;;15.60;1.00;;;;;;5047624;28;20653;-73
2023/07/03 03:47:13;;;;;;;14.27;5.50;;;15.50;1.00;;;;;;5047423;28;20230;-74
2023/07/03 03:49:39;;;;;;;10.80;5.00;;;15.50;1.00;;;;;;5052282;28;20213;-76
2023/07/03 03:52:05;;;;;;;10.18;5.03;;;15.40;1.00;;;;;;5050308;28;20182;-73
2023/07/03 03:54:31;;;;;;;6.78;4.88;;;15.40;1.00;;;;;;5051508;28;20209;-75
2023/07/03 03:56:57;;;;;;;8.05;5.15;;;15.50;1.00;;;;;;5052612;28;20677;-72
2023/07/03 03:59:23;;;;;;;9.25;5.22;;;15.50;1.00;;;;;;5048707;28;20762;-73
2023/07/03 04:01:49;;;;;;;7.93;5.18;;;15.60;1.00;;;;;;5047110;28;20178;-73
2023/07/03 04:04:15;;;;;;;6.55;4.90;;;15.70;1.00;;;;;;5054732;28;20184;-73
2023/07/03 04:06:41;;;;;;;11.93;5.47;;;15.80;1.00;;;;;;5051655;28;20214;-73
2023/07/03 04:09:07;;;;;;;9.30;5.05;;;15.90;1.00;;;;;;5050037;28;20241;-73
2023/07/03 04:11:33;;;;;;;9.48;5.20;;;16.00;1.00;;;;;;5047334;28;20620;-74
2023/07/03 04:13:59;;;;;;;10.48;4.93;;;15.90;1.00;;;;;;5048989;28;20280;-74
2023/07/03 04:16:27;;;;;;;10.20;5.10;;;15.90;1.00;;;;;;5049972;28;20293;-73
2023/07/03 04:18:52;;;;;;;7.68;5.03;;;15.80;1.00;;;;;;5054601;28;20181;-75
2023/07/03 04:21:18;;;;;;;8.82;4.72;;;15.80;1.00;;;;;;5050073;28;20577;-73
2023/07/03 04:23:43;;;;;;;10.60;5.43;;;15.80;1.00;;;;;;5051404;28;20453;-74
2023/07/03 04:26:09;;;;;;;6.85;4.60;;;15.80;1.00;;;;;;5046713;28;20209;-74
2023/07/03 04:28:35;;;;;;;8.88;5.10;;;15.80;1.00;;;;;;5045982;28;20193;-73
2023/07/03 04:31:02;;;;;;;10.15;5.07;;;15.70;1.00;;;;;;5054361;28;20659;-73
2023/07/03 04:33:28;;;;;;;9.10;5.32;;;15.80;1.00;;;;;;5045357;28;20201;-74
2023/07/03 04:35:54;;;;;;;9.82;5.03;;;15.70;1.00;;;;;;5035413;28;20256;-73
2023/07/03 04:38:23;;;;;;;7.93;5.32;;;15.70;1.00;;;;;;5052949;28;20217;-74
2023/07/03 04:40:51;;;;;;;8.32;5.53;;;15.80;1.00;;;;;;5046655;28;20177;-71
2023/07/03 04:43:20;;;;;;;10.38;5.20;;;15.80;1.00;;;;;;5044925;28;20182;-74
2023/07/03 04:45:50;;;;;;;10.80;4.70;;;15.90;1.00;;;;;;5046308;28;20567;-73
2023/07/03 04:48:18;;;;;;;8.25;4.90;;;16.00;1.00;;;;;;5055468;28;20181;-74
2023/07/03 04:50:49;;;;;;;9.32;5.20;;;16.00;1.00;;;;;;5029417;28;20190;-75
2023/07/03 04:53:16;;;;;;;10.35;5.35;;;15.90;1.00;;;;;;5049671;28;20773;-74
2023/07/03 04:55:42;;;;;;;9.63;5.15;;;15.80;1.00;;;;;;5051257;28;20233;-73
2023/07/03 04:58:09;;;;;;;12.43;5.60;;;15.80;1.00;;;;;;5045508;28;20450;-73
2023/07/03 05:00:35;;;;;;;10.50;5.32;;;15.80;1.00;;;;;;5052951;28;20305;-73
2023/07/03 05:03:03;;;;;;;9.38;5.15;;;15.80;1.00;;;;;;5052099;28;20300;-72
2023/07/03 05:05:29;;;;;;;8.85;5.18;;;15.70;1.00;;;;;;5052691;28;20212;-73
2023/07/03 05:07:55;;;;;;;10.05;5.22;;;15.80;1.00;;;;;;5046186;28;20178;-74
2023/07/03 05:10:22;;;;;;;10.55;5.53;;;15.90;1.00;;;;;;5047650;28;20233;-74
2023/07/03 05:12:48;;;;;;;8.60;4.82;;;16.00;1.00;;;;;;5051889;28;20192;-74
2023/07/03 05:15:15;;;;;;;8.38;5.00;;;16.20;1.00;;;;;;5049898;28;20224;-72
2023/07/03 05:17:41;;;;;;;14.15;5.45;;;16.20;1.00;;;;;;5031047;28;20182;-73
2023/07/03 05:20:13;;;;;;;12.65;4.80;;;16.20;1.00;;;;;;5063147;28;20188;-73
2023/07/03 05:22:41;;;;;;;8.43;4.85;;;16.40;1.00;;;;;;5045702;28;20205;-73
2023/07/03 05:25:09;;;;;;;9.38;4.75;;;16.50;1.00;;;;;;5048188;28;20631;-72
2023/07/03 05:27:34;;;;;;;11.60;4.65;;;16.50;1.00;;;;;;5036066;28;20186;-72
2023/07/03 05:30:00;;;;;;;10.45;5.05;;;16.80;1.00;;;;;;5049850;28;20237;-73
2023/07/03 05:32:25;;;;;;;13.13;4.80;;;17.50;1.00;;;;;;5052676;28;20182;-74
2023/07/03 05:34:51;;;;;;;9.18;4.30;;;17.70;1.00;;;;;;5053018;28;20264;-74
2023/07/03 05:37:18;;;;;;;9.55;4.50;;;17.60;1.00;;;;;;5051887;28;20540;-74
2023/07/03 05:39:46;;;;;;;10.13;4.43;;;17.90;1.00;;;;;;5052251;28;20177;-73
2023/07/03 05:42:16;;;;;;;9.80;4.00;;;18.70;1.00;;;;;;5047815;28;20204;-72
2023/07/03 05:44:42;;;;;;;6.70;3.60;;;19.00;1.00;;;;;;5044033;28;20210;-72
2023/07/03 05:47:08;;;;;;;10.15;4.40;;;19.00;1.00;;;;;;5045832;28;20665;-72
2023/07/03 05:49:34;;;;;;;9.55;4.10;;;18.90;1.00;;;;;;5052638;28;20228;-73
2023/07/03 05:51:59;;;;;;;10.25;4.20;;;19.20;1.00;;;;;;5028169;28;20608;-72
2023/07/03 05:54:25;;;;;;;10.88;4.38;;;19.10;1.00;;;;;;5045944;28;20198;-73
2023/07/03 05:57:05;;;;;;;6.70;3.90;;;19.70;1.00;;;;;;5028209;28;20562;-74
2023/07/03 05:59:32;;;;;;;13.50;4.40;;;20.00;1.00;;;;;;5054197;28;20177;-73
2023/07/03 06:01:58;;;;;;;9.50;4.15;;;20.50;1.00;;;;;;5044942;28;20228;-74
2023/07/03 06:04:24;;;;;;;8.48;4.13;;;20.90;99.90;;;;;;5053062;28;20193;-73
2023/07/03 06:06:55;;;;;;;12.95;4.18;;;21.20;99.90;;;;;;5045354;28;20218;-73
2023/07/03 06:09:21;;;;;;;9.52;4.07;;;21.10;99.90;;;;;;5053971;28;20185;-73
2023/07/03 06:11:47;;;;;;;9.32;4.05;;;21.40;99.90;;;;;;5049290;28;20197;-73
2023/07/03 06:14:15;;;;;;;12.05;4.15;;;21.30;99.90;;;;;;5051257;28;20182;-73
2023/07/03 06:16:42;;;;;;;10.35;4.45;;;21.30;99.90;;;;;;5056187;28;20224;-73
2023/07/03 06:19:08;;;;;;;9.10;4.30;;;21.70;99.90;;;;;;5047105;28;20178;-73
2023/07/03 06:21:33;;;;;;;10.95;4.18;;;21.30;99.90;;;;;;5058238;28;20189;-73
2023/07/03 06:23:59;;;;;;;9.75;4.47;;;21.30;99.90;;;;;;5032528;28;20293;-72
2023/07/03 06:26:24;;;;;;;9.80;3.83;;;21.80;99.90;;;;;;5043840;28;20260;-73
2023/07/03 06:28:50;;;;;;;10.07;3.65;;;21.40;99.90;;;;;;5049426;28;20182;-74
2023/07/03 06:31:16;;;;;;;7.10;3.75;;;21.30;99.90;;;;;;5051980;28;20189;-73
2023/07/03 06:33:41;;;;;;;10.30;3.83;;;20.40;99.90;;;;;;5045904;28;21208;-74
2023/07/03 06:36:07;;;;;;;14.25;4.13;;;20.80;99.90;;;;;;5048068;28;20217;-73
2023/07/03 06:38:33;;;;;;;7.25;3.50;;;21.50;99.90;;;;;;5044370;28;20186;-74
2023/07/03 06:40:59;;;;;;;8.68;4.72;;;22.40;99.90;;;;;;5047626;28;20651;-74
2023/07/03 06:43:25;;;;;;;8.30;3.85;;;23.30;99.90;;;;;;5050031;28;20206;-73
2023/07/03 06:45:51;;;;;;;9.15;3.65;;;23.70;99.90;;;;;;5049406;28;20275;-74
2023/07/03 06:48:16;;;;;;;9.93;3.88;;;23.70;99.90;;;;;;5051261;28;20629;-73
2023/07/03 06:50:42;;;;;;;10.30;3.63;;;24.20;99.90;;;;;;5051987;28;20189;-73
2023/07/03 06:53:08;;;;;;;9.02;3.58;;;23.60;99.90;;;;;;5048307;28;20194;-73
2023/07/03 06:55:33;;;;;;;7.70;3.17;;;23.10;99.90;;;;;;5034828;28;20214;-73
2023/07/03 06:58:00;;;;;;;9.85;3.80;;;23.70;99.90;;;;;;5045650;28;20588;-73
2023/07/03 07:00:27;;;;;;;9.02;3.65;;;24.10;99.90;;;;;;5047425;28;20210;-73
2023/07/03 07:02:52;;;;;;;9.07;3.35;;;24.90;99.90;;;;;;5050391;28;20287;-73
2023/07/03 07:05:19;;;;;;;8.32;3.38;;;26.00;99.90;;;;;;5048059;28;20682;-74
2023/07/03 07:07:45;;;;;;;9.27;3.63;;;25.70;99.90;;;;;;5049256;28;20180;-73
2023/07/03 07:10:11;;;;;;;7.35;3.50;;;24.90;99.90;;;;;;5047124;28;20182;-73
2023/07/03 07:12:36;;;;;;;9.52;3.63;;;24.40;99.90;;;;;;5045713;28;20555;-73
2023/07/03 07:15:03;;;;;;;7.80;3.17;;;23.90;99.90;;;;;;5049176;28;20268;-73
2023/07/03 07:17:28;;;;;;;8.18;3.60;;;22.90;99.90;;;;;;5045518;28;20186;-74
2023/07/03 07:19:54;;;;;;;8.35;3.72;;;22.60;99.90;;;;;;5050276;28;20193;-73
2023/07/03 07:22:19;;;;;;;7.00;3.30;;;22.70;99.90;;;;;;5052475;28;20185;-76
2023/07/03 07:24:45;;;;;;;10.40;3.47;;;22.10;99.90;;;;;;5046315;28;20193;-73
2023/07/03 07:27:11;;;;;;;8.63;4.00;;;22.00;99.90;;;;;;5059601;28;20210;-74
2023/07/03 07:29:39;;;;;;;13.85;3.83;;;21.80;99.90;;;;;;5053608;28;20186;-74
2023/07/03 07:32:06;;;;;;;8.40;3.45;;;21.20;99.90;;;;;;5043856;28;20174;-73
2023/07/03 07:34:31;;;;;;;11.48;3.67;;;20.40;99.90;;;;;;5044089;28;20648;-74
2023/07/03 07:36:57;;;;;;;7.38;3.20;;;20.00;99.90;;;;;;5051137;28;20218;-73
2023/07/03 07:39:26;;;;;;;6.75;3.22;;;19.80;99.90;;;;;;5045264;28;20178;-73
2023/07/03 07:41:52;;;;;;;7.97;3.47;;;19.60;99.90;;;;;;5043233;28;20265;-73
2023/07/03 07:44:18;;;;;;;9.90;3.35;;;19.70;99.90;;;;;;5045967;28;20265;-73
2023/07/03 07:46:44;;;;;;;9.45;3.80;;;19.80;99.90;;;;;;5047151;28;20210;-72
2023/07/03 07:49:09;;;;;;;9.80;3.58;;;19.60;99.90;;;;;;5047164;28;20194;-74
2023/07/03 07:51:35;;;;;;;11.50;3.95;;;19.60;99.90;;;;;;5056969;28;20240;-73
2023/07/03 07:54:01;;;;;;;10.73;3.10;;;19.20;99.90;;;;;;5059848;28;20209;-74
2023/07/03 07:56:27;;;;;;;10.18;3.38;;;19.10;99.90;;;;;;5046468;28;20217;-73
2023/07/03 07:58:53;;;;;;;10.07;3.58;;;19.20;99.90;;;;;;5049210;28;20182;-73
2023/07/03 08:01:19;;;;;;;8.52;3.15;;;19.00;99.90;;;;;;5047085;28;20196;-73
2023/07/03 08:03:44;;;;;;;7.82;3.30;;;19.30;99.90;;;;;;5032412;28;20650;-73
2023/07/03 08:06:11;;;;;;;8.38;3.40;;;19.40;99.90;;;;;;5036941;28;20214;-73
2023/07/03 08:08:37;;;;;;;11.82;3.58;;;19.50;99.90;;;;;;5047202;28;20244;-73
2023/07/03 08:11:05;;;;;;;9.30;2.95;;;19.50;99.90;;;;;;5057814;28;20997;-73
2023/07/03 08:13:32;;;;;;;11.57;3.85;;;19.30;99.90;;;;;;5053207;28;20272;-72
2023/07/03 08:15:58;;;;;;;10.65;3.40;;;19.30;99.90;;;;;;5046269;28;20772;-73
2023/07/03 08:18:24;;;;;;;8.85;2.97;;;19.60;99.90;;;;;;5051480;28;20288;-74
2023/07/03 08:20:50;;;;;;;11.60;3.65;;;19.50;99.90;;;;;;5060835;28;20184;-73
2023/07/03 08:23:16;;;;;;;9.45;3.60;;;19.50;99.90;;;;;;5045689;28;20182;-73
2023/07/03 08:25:42;;;;;;;9.30;3.58;;;19.60;99.90;;;;;;5047500;28;20266;-73
2023/07/03 08:28:09;;;;;;;7.95;3.50;;;19.40;99.90;;;;;;5048762;28;20221;-73
2023/07/03 08:30:35;;;;;;;10.43;3.47;;;19.10;99.90;;;;;;5046517;28;20190;-73
2023/07/03 08:33:01;;;;;;;8.90;3.20;;;18.70;99.90;;;;;;5045721;28;20252;-74
2023/07/03 08:35:26;;;;;;;9.60;3.45;;;18.50;99.90;;;;;;5048252;28;20486;-75
2023/07/03 08:37:52;;;;;;;8.25;3.20;;;18.40;99.90;;;;;;5050068;28;20182;-73
2023/07/03 08:40:20;;;;;;;9.52;3.17;;;18.30;99.90;;;;;;5046977;28;20217;-74
2023/07/03 08:42:49;;;;;;;11.52;4.05;;;18.50;99.90;;;;;;5045638;28;20186;-73
2023/07/03 08:45:17;;;;;;;12.10;3.42;;;18.60;99.90;;;;;;5048246;28;20210;-73
2023/07/03 08:47:45;;;;;;;9.35;3.33;;;19.10;99.90;;;;;;5047822;28;20229;-73
2023/07/03 08:50:16;;;;;;;8.23;3.30;;;19.40;99.90;;;;;;5045694;28;20277;-74
2023/07/03 08:52:49;;;;;;;10.15;4.25;;;19.80;99.90;;;;;;5053681;28;20288;-75
2023/07/03 08:55:20;;;;;;;9.70;3.35;;;20.20;99.90;;;;;;5047611;28;20291;-73
2023/07/03 08:57:46;;;;;;;9.73;3.17;;;20.40;99.90;;;;;;5046601;28;20550;-74
2023/07/03 09:00:12;;;;;;;10.27;2.88;;;20.30;99.90;;;;;;5045514;28;20194;-74
2023/07/03 09:02:47;;;;;;;10.38;3.33;;;20.30;99.90;;;;;;5045968;28;20182;-74
2023/07/03 09:05:50;;;;;;;9.57;3.50;;;20.20;99.90;;;;;;5052051;28;20688;-73
2023/07/03 09:08:28;;;;;;;9.57;2.90;;;20.00;99.90;;;;;;5048219;28;21084;-73
2023/07/03 09:10:55;;;;;;;9.45;3.60;;;19.60;99.90;;;;;;5045272;28;20557;-73
2023/07/03 09:13:31;;;;;;;8.93;2.75;;;19.30;99.90;;;;;;5044836;28;20186;-73
2023/07/03 09:16:12;;;;;;;6.90;2.67;;;18.90;99.90;;;;;;5027226;28;20300;-75
2023/07/03 09:19:00;;;;;;;13.27;3.60;;;18.60;99.90;;;;;;5051478;28;20181;-73
2023/07/03 09:21:28;;;;;;;9.52;3.30;;;18.50;99.90;;;;;;5046284;28;20664;-73
2023/07/03 09:24:07;;;;;;;10.43;3.35;;;18.40;99.90;;;;;;5049203;28;20343;-73
2023/07/03 09:26:43;;;;;;;9.38;3.47;;;18.30;99.90;;;;;;5053832;28;20201;-74
2023/07/03 09:29:10;;;;;;;10.35;3.55;;;18.20;99.90;;;;;;5054791;28;20186;-73
2023/07/03 09:31:36;;;;;;;7.03;3.20;;;17.90;99.90;;;;;;5029783;28;20340;-73
2023/07/03 09:34:01;;;;;;;9.80;3.17;;;17.80;99.90;;;;;;5048910;28;20701;-73
2023/07/03 09:36:35;;;;;;;10.18;3.33;;;17.70;99.90;;;;;;5055781;28;20216;-73
2023/07/03 09:39:14;;;;;;;10.05;3.15;;;17.70;99.90;;;;;;5051706;28;20181;-73
2023/07/03 09:41:40;;;;;;;12.48;3.88;;;17.90;99.90;;;;;;5049302;28;20184;-73
2023/07/03 09:44:10;;;;;;;9.95;3.42;;;18.00;99.90;;;;;;5042307;28;20304;-74
2023/07/03 09:46:36;;;;;;;11.23;4.10;;;18.40;99.90;;;;;;5053863;28;20237;-73
2023/07/03 09:49:03;;;;;;;11.50;3.28;;;19.00;99.90;;;;;;5045309;28;20272;-73
2023/07/03 09:51:30;;;;;;;8.00;3.38;;;19.50;99.90;;;;;;5056800;28;20570;-73
2023/07/03 09:53:58;;;;;;;9.30;3.20;;;19.70;99.90;;;;;;5047255;28;20676;-74
2023/07/03 09:56:29;;;;;;;6.88;2.67;;;19.80;99.90;;;;;;5054495;28;20591;-73
2023/07/03 09:59:00;;;;;;;8.10;3.03;;;19.60;99.90;;;;;;5051997;28;20406;-73
2023/07/03 10:01:32;;;;;;;10.85;3.33;;;19.50;99.90;;;;;;5044535;28;20185;-74
2023/07/03 10:04:29;;;;;;;7.28;3.20;;;19.20;99.90;;;;;;5050799;28;20618;-74
2023/07/03 10:07:00;;;;;;;9.35;2.95;;;18.90;99.90;;;;;;5048436;28;20218;-73
2023/07/03 10:09:30;;;;;;;9.70;3.38;;;18.60;99.90;;;;;;5044846;28;20240;-73
2023/07/03 10:12:09;;;;;;;9.55;3.30;;;18.50;99.90;;;;;;5026393;28;20213;-73
2023/07/03 10:14:57;;;;;;;11.45;3.97;;;18.50;99.90;;;;;;5044456;28;20237;-73
2023/07/03 10:17:33;;;;;;;12.13;4.25;;;18.60;99.90;;;;;;5045641;28;20197;-74
2023/07/03 10:20:10;;;;;;;11.40;3.60;;;18.80;99.90;;;;;;5050281;28;20181;-74
2023/07/03 10:22:39;;;;;;;9.23;3.10;;;18.90;99.90;;;;;;5050850;28;20641;-74
2023/07/03 10:25:09;;;;;;;10.40;4.07;;;18.90;99.90;;;;;;5043469;28;20185;-73
2023/07/03 10:27:37;;;;;;;9.10;3.42;;;19.00;99.90;;;;;;5050466;28;20173;-73
2023/07/03 10:30:08;;;;;;;9.95;3.85;;;19.20;99.90;;;;;;5048257;28;20190;-73
2023/07/03 10:32:36;;;;;;;9.93;3.35;;;19.70;99.90;;;;;;5047404;28;20193;-72
2023/07/03 10:35:20;;;;;;;15.38;3.90;;;19.90;99.90;;;;;;5045216;28;20193;-73
2023/07/03 10:38:08;;;;;;;11.73;4.28;;;19.90;99.90;;;;;;5044307;28;20193;-73
2023/07/03 10:40:36;;;;;;;9.45;3.65;;;19.60;99.90;;;;;;5047719;28;20706;-73
2023/07/03 10:43:04;;;;;;;10.18;3.72;;;19.50;99.90;;;;;;5053040;28;20185;-73
2023/07/03 10:45:34;;;;;;;10.73;4.10;;;19.70;99.90;;;;;;5037115;28;20201;-73
2023/07/03 10:48:04;;;;;;;12.10;3.45;;;20.00;99.90;;;;;;5047316;28;20691;-73
2023/07/03 10:50:40;;;;;;;9.90;3.13;;;20.20;99.90;;;;;;5048535;28;20272;-74
2023/07/03 10:53:17;;;;;;;11.35;3.00;;;20.10;99.90;;;;;;5043207;28;20205;-73
2023/07/03 10:55:47;;;;;;;8.98;2.75;;;20.00;99.90;;;;;;5048485;28;20212;-73
2023/07/03 10:58:22;;;;;;;9.75;3.30;;;19.90;99.90;;;;;;5051753;28;20194;-74
2023/07/03 11:01:13;;;;;;;10.00;2.85;;;19.90;99.90;;;;;;5051856;28;20172;-74
2023/07/03 11:03:45;;;;;;;8.52;3.03;;;19.70;99.90;;;;;;5045264;28;20257;-73
2023/07/03 11:06:19;;;;;;;8.82;2.72;;;19.70;99.90;;;;;;5049047;28;20216;-74
2023/07/03 11:09:02;;;;;;;7.45;2.97;;;19.70;99.90;;;;;;5043626;28;20969;-74
2023/07/03 11:11:49;;;;;;;8.10;2.47;;;19.60;99.90;;;;;;5045381;28;21201;-72
2023/07/03 11:14:32;;;;;;;7.30;2.78;;;19.30;99.90;;;;;;5053705;28;20192;-73
2023/07/03 11:17:11;;;;;;;7.72;2.90;;;19.20;99.90;;;;;;5043665;28;20205;-73
2023/07/03 11:19:49;;;;;;;9.73;2.75;;;19.00;99.90;;;;;;5049267;28;20174;-74
2023/07/03 11:22:30;;;;;;;11.02;2.63;;;18.90;99.90;;;;;;5032005;28;20186;-73
2023/07/03 11:25:24;;;;;;;5.90;2.67;;;18.90;99.90;;;;;;5054426;28;20226;-74
2023/07/03 11:28:06;;;;;;;8.98;2.75;;;18.80;99.90;;;;;;5053296;28;20179;-74
2023/07/03 11:30:35;;;;;;;7.15;2.63;;;18.80;99.90;;;;;;5053531;28;20188;-73
2023/07/03 11:33:05;;;;;;;7.28;2.35;;;18.80;99.90;;;;;;5047018;28;20182;-74
2023/07/03 11:35:30;;;;;;;6.43;2.97;;;19.10;99.90;;;;;;5048326;28;20217;-74
2023/07/03 11:38:02;;;;;;;7.32;3.20;;;19.30;99.90;;;;;;5053459;28;20178;-75
2023/07/03 11:40:33;;;;;;;6.70;2.72;;;19.50;99.90;;;;;;5059840;28;20177;-74
2023/07/03 11:43:41;;;;;;;6.22;2.72;;;19.60;99.90;;;;;;5049150;28;20176;-74
2023/07/03 11:46:17;;;;;;;8.80;2.60;;;19.40;99.90;;;;;;5048980;28;20198;-73
2023/07/03 11:48:46;;;;;;;9.38;3.03;;;19.30;99.90;;;;;;5052674;28;20655;-75
2023/07/03 11:51:15;;;;;;;8.88;3.22;;;19.40;99.90;;;;;;5030594;28;20194;-74
2023/07/03 11:53:57;;;;;;;8.50;3.30;;;19.40;99.90;;;;;;5048304;28;20617;-73
2023/07/03 11:56:41;;;;;;;6.55;2.90;;;19.60;99.90;;;;;;5050970;28;20298;-73
2023/07/03 11:59:25;;;;;;;8.35;2.80;;;19.60;99.90;;;;;;5046528;28;20174;-73
2023/07/03 12:02:16;;;;;;;6.68;2.88;;;19.70;99.90;;;;;;5049889;28;20182;-74
2023/07/03 12:04:47;;;;;;;10.65;2.92;;;20.20;99.90;;;;;;5047799;28;20214;-73
2023/07/03 12:07:20;;;;;;;9.38;2.95;;;20.50;99.90;;;;;;5051217;28;20288;-73
2023/07/03 12:09:47;;;;;;;7.25;3.13;;;20.40;99.90;;;;;;5054829;28;20181;-73
2023/07/03 12:12:29;;;;;;;7.40;2.97;;;20.10;99.90;;;;;;5046732;28;20186;-73
2023/07/03 12:15:00;;;;;;;8.07;2.60;;;20.10;99.90;;;;;;5048476;28;20225;-74
2023/07/03 12:17:32;;;;;;;7.68;3.00;;;20.10;99.90;;;;;;5050860;28;20190;-74
2023/07/03 12:20:10;;;;;;;7.30;3.10;;;20.20;99.90;;;;;;5036168;28;20527;-73
2023/07/03 12:22:39;;;;;;;7.85;3.38;;;20.30;99.90;;;;;;5050490;28;20293;-73
2023/07/03 12:25:07;;;;;;;6.97;2.83;;;20.30;99.90;;;;;;5049286;28;20187;-73
2023/07/03 12:27:33;;;;;;;10.00;3.08;;;20.40;99.90;;;;;;5049680;28;20190;-74
2023/07/03 12:29:59;;;;;;;9.77;3.28;;;20.50;99.90;;;;;;5051703;28;20189;-74
2023/07/03 12:32:30;;;;;;;8.30;3.35;;;20.80;99.90;;;;;;5052654;28;20182;-73
2023/07/03 12:35:32;;;;;;;7.93;3.08;;;20.90;99.90;;;;;;5031726;28;20175;-73
2023/07/03 12:38:06;;;;;;;7.10;2.53;;;20.80;99.90;;;;;;5018257;28;20424;-74
2023/07/03 12:40:32;;;;;;;7.65;3.08;;;20.60;99.90;;;;;;5045970;28;20186;-73
2023/07/03 12:42:58;;;;;;;8.52;2.85;;;20.70;99.90;;;;;;5054160;28;20189;-73
2023/07/03 12:45:29;;;;;;;6.93;3.15;;;20.70;99.90;;;;;;5031454;28;20210;-73
2023/07/03 12:48:10;;;;;;;5.90;3.05;;;20.60;99.90;;;;;;5048268;28;20217;-73
2023/07/03 12:50:49;;;;;;;9.65;2.88;;;20.50;99.90;;;;;;5054321;28;20280;-73
2023/07/03 12:53:15;;;;;;;9.57;2.95;;;20.30;99.90;;;;;;5045364;28;20237;-74
2023/07/03 12:55:44;;;;;;;7.03;2.90;;;20.20;99.90;;;;;;5045598;28;20226;-73
2023/07/03 12:58:11;;;;;;;6.75;3.05;;;20.10;99.90;;;;;;5028137;28;20221;-73
2023/07/03 13:00:37;;;;;;;7.93;3.17;;;20.10;99.90;;;;;;5059165;28;20196;-74